sensor_id;sensor_type;location;lat;lon;timestamp;P1;durP1;ratioP1;P2;durP2;ratioP2
51312;SDS011;37397;53.226;10.400;2022-07-23T00:01:03;5.03;;;2.03;;
51312;SDS011;37397;53.226;10.400;2022-07-23T00:03:30;7.03;;;2.08;;
51312;SDS011;37397;53.226;10.400;2022-07-23T00:05:57;6.22;;;2.10;;
51312;SDS011;37397;53.226;10.400;2022-07-23T00:08:23;6.28;;;2.00;;
51312;SDS011;37397;53.226;10.400;2022-07-23T00:10:50;4.90;;;2.00;;
51312;SDS011;37397;53.226;10.400;2022-07-23T00:13:16;5.25;;;2.53;;
51312;SDS011;37397;53.226;10.400;2022-07-23T00:15:43;5.38;;;1.95;;
51312;SDS011;37397;53.226;10.400;2022-07-23T00:18:09;7.80;;;2.20;;
51312;SDS011;37397;53.226;10.400;2022-07-23T00:20:36;3.92;;;1.98;;
51312;SDS011;37397;53.226;10.400;2022-07-23T00:23:03;4.10;;;1.85;;
51312;SDS011;37397;53.226;10.400;2022-07-23T00:25:29;5.72;;;1.83;;
51312;SDS011;37397;53.226;10.400;2022-07-23T00:27:57;6.25;;;2.38;;
51312;SDS011;37397;53.226;10.400;2022-07-23T00:30:25;4.47;;;1.98;;
51312;SDS011;37397;53.226;10.400;2022-07-23T00:32:56;5.65;;;1.90;;
51312;SDS011;37397;53.226;10.400;2022-07-23T00:35:26;9.20;;;2.00;;
51312;SDS011;37397;53.226;10.400;2022-07-23T00:37:54;4.55;;;2.13;;
51312;SDS011;37397;53.226;10.400;2022-07-23T00:40:21;4.60;;;1.88;;
51312;SDS011;37397;53.226;10.400;2022-07-23T00:42:48;4.20;;;1.92;;
51312;SDS011;37397;53.226;10.400;2022-07-23T00:45:15;4.70;;;2.08;;
51312;SDS011;37397;53.226;10.400;2022-07-23T00:47:42;6.85;;;2.03;;
51312;SDS011;37397;53.226;10.400;2022-07-23T00:50:08;8.48;;;2.30;;
51312;SDS011;37397;53.226;10.400;2022-07-23T00:52:36;5.25;;;1.90;;
51312;SDS011;37397;53.226;10.400;2022-07-23T00:55:04;6.53;;;1.95;;
51312;SDS011;37397;53.226;10.400;2022-07-23T00:57:32;5.35;;;1.80;;
51312;SDS011;37397;53.226;10.400;2022-07-23T00:59:59;5.93;;;1.95;;
51312;SDS011;37397;53.226;10.400;2022-07-23T01:02:25;3.85;;;1.67;;
51312;SDS011;37397;53.226;10.400;2022-07-23T01:04:52;6.00;;;2.03;;
51312;SDS011;37397;53.226;10.400;2022-07-23T01:07:20;4.10;;;1.85;;
51312;SDS011;37397;53.226;10.400;2022-07-23T01:09:47;5.28;;;1.80;;
51312;SDS011;37397;53.226;10.400;2022-07-23T01:12:13;4.82;;;1.90;;
51312;SDS011;37397;53.226;10.400;2022-07-23T01:14:40;5.10;;;2.08;;
51312;SDS011;37397;53.226;10.400;2022-07-23T01:17:07;4.43;;;1.92;;
51312;SDS011;37397;53.226;10.400;2022-07-23T01:19:34;6.18;;;2.05;;
51312;SDS011;37397;53.226;10.400;2022-07-23T01:22:01;5.03;;;1.95;;
51312;SDS011;37397;53.226;10.400;2022-07-23T01:24:30;9.88;;;2.25;;
51312;SDS011;37397;53.226;10.400;2022-07-23T01:27:02;6.10;;;2.30;;
51312;SDS011;37397;53.226;10.400;2022-07-23T01:29:33;3.58;;;1.83;;
51312;SDS011;37397;53.226;10.400;2022-07-23T01:32:04;4.85;;;1.95;;
51312;SDS011;37397;53.226;10.400;2022-07-23T01:34:31;6.72;;;2.20;;
51312;SDS011;37397;53.226;10.400;2022-07-23T01:36:58;5.55;;;1.88;;
51312;SDS011;37397;53.226;10.400;2022-07-23T01:39:25;6.85;;;2.15;;
51312;SDS011;37397;53.226;10.400;2022-07-23T01:41:52;4.82;;;2.00;;
51312;SDS011;37397;53.226;10.400;2022-07-23T01:44:20;5.75;;;2.17;;
51312;SDS011;37397;53.226;10.400;2022-07-23T01:46:47;3.10;;;1.77;;
51312;SDS011;37397;53.226;10.400;2022-07-23T01:49:15;4.95;;;2.20;;
51312;SDS011;37397;53.226;10.400;2022-07-23T01:52:04;4.25;;;1.92;;
51312;SDS011;37397;53.226;10.400;2022-07-23T01:54:41;4.50;;;1.90;;
51312;SDS011;37397;53.226;10.400;2022-07-23T01:57:08;6.07;;;2.15;;
51312;SDS011;37397;53.226;10.400;2022-07-23T01:59:36;5.18;;;2.25;;
51312;SDS011;37397;53.226;10.400;2022-07-23T02:02:04;4.13;;;2.20;;
51312;SDS011;37397;53.226;10.400;2022-07-23T02:04:31;3.85;;;2.10;;
51312;SDS011;37397;53.226;10.400;2022-07-23T02:07:01;5.32;;;2.15;;
51312;SDS011;37397;53.226;10.400;2022-07-23T02:09:29;5.90;;;2.42;;
51312;SDS011;37397;53.226;10.400;2022-07-23T02:11:55;4.70;;;2.10;;
51312;SDS011;37397;53.226;10.400;2022-07-23T02:14:22;5.22;;;1.92;;
51312;SDS011;37397;53.226;10.400;2022-07-23T02:16:49;5.80;;;2.00;;
51312;SDS011;37397;53.226;10.400;2022-07-23T02:19:16;5.63;;;2.33;;
51312;SDS011;37397;53.226;10.400;2022-07-23T02:21:43;3.42;;;1.83;;
51312;SDS011;37397;53.226;10.400;2022-07-23T02:24:10;5.30;;;2.25;;
51312;SDS011;37397;53.226;10.400;2022-07-23T02:26:39;5.07;;;2.08;;
51312;SDS011;37397;53.226;10.400;2022-07-23T02:29:07;5.85;;;2.58;;
51312;SDS011;37397;53.226;10.400;2022-07-23T02:31:33;3.88;;;2.17;;
51312;SDS011;37397;53.226;10.400;2022-07-23T02:34:01;4.20;;;1.98;;
51312;SDS011;37397;53.226;10.400;2022-07-23T02:36:27;6.05;;;2.70;;
51312;SDS011;37397;53.226;10.400;2022-07-23T02:38:55;3.80;;;1.80;;
51312;SDS011;37397;53.226;10.400;2022-07-23T02:41:22;6.07;;;1.90;;
51312;SDS011;37397;53.226;10.400;2022-07-23T02:43:48;6.57;;;2.10;;
51312;SDS011;37397;53.226;10.400;2022-07-23T02:46:15;5.68;;;2.10;;
51312;SDS011;37397;53.226;10.400;2022-07-23T02:48:42;6.07;;;2.20;;
51312;SDS011;37397;53.226;10.400;2022-07-23T02:51:09;5.25;;;1.90;;
51312;SDS011;37397;53.226;10.400;2022-07-23T02:53:46;5.03;;;2.22;;
51312;SDS011;37397;53.226;10.400;2022-07-23T02:56:12;3.25;;;1.88;;
51312;SDS011;37397;53.226;10.400;2022-07-23T02:58:40;5.15;;;1.80;;
51312;SDS011;37397;53.226;10.400;2022-07-23T03:01:07;6.53;;;1.90;;
51312;SDS011;37397;53.226;10.400;2022-07-23T03:03:34;7.68;;;2.40;;
51312;SDS011;37397;53.226;10.400;2022-07-23T03:06:00;7.57;;;1.90;;
51312;SDS011;37397;53.226;10.400;2022-07-23T03:08:27;6.22;;;2.30;;
51312;SDS011;37397;53.226;10.400;2022-07-23T03:10:53;4.20;;;1.80;;
51312;SDS011;37397;53.226;10.400;2022-07-23T03:13:20;5.88;;;2.13;;
51312;SDS011;37397;53.226;10.400;2022-07-23T03:15:46;4.15;;;1.83;;
51312;SDS011;37397;53.226;10.400;2022-07-23T03:18:13;4.75;;;1.90;;
51312;SDS011;37397;53.226;10.400;2022-07-23T03:20:39;4.32;;;1.92;;
51312;SDS011;37397;53.226;10.400;2022-07-23T03:23:08;5.60;;;2.38;;
51312;SDS011;37397;53.226;10.400;2022-07-23T03:25:36;3.70;;;1.88;;
51312;SDS011;37397;53.226;10.400;2022-07-23T03:28:03;4.65;;;1.92;;
51312;SDS011;37397;53.226;10.400;2022-07-23T03:30:30;4.25;;;2.10;;
51312;SDS011;37397;53.226;10.400;2022-07-23T03:32:56;4.32;;;1.98;;
51312;SDS011;37397;53.226;10.400;2022-07-23T03:35:23;5.05;;;2.08;;
51312;SDS011;37397;53.226;10.400;2022-07-23T03:38:10;5.45;;;2.25;;
51312;SDS011;37397;53.226;10.400;2022-07-23T03:40:36;6.25;;;2.28;;
51312;SDS011;37397;53.226;10.400;2022-07-23T03:43:03;4.97;;;2.03;;
51312;SDS011;37397;53.226;10.400;2022-07-23T03:45:31;3.67;;;2.00;;
51312;SDS011;37397;53.226;10.400;2022-07-23T03:47:59;7.88;;;2.08;;
51312;SDS011;37397;53.226;10.400;2022-07-23T03:50:27;4.45;;;1.95;;
51312;SDS011;37397;53.226;10.400;2022-07-23T03:52:55;4.85;;;1.98;;
51312;SDS011;37397;53.226;10.400;2022-07-23T03:55:21;7.28;;;1.90;;
51312;SDS011;37397;53.226;10.400;2022-07-23T03:57:48;6.07;;;1.77;;
51312;SDS011;37397;53.226;10.400;2022-07-23T04:00:15;4.20;;;1.80;;
51312;SDS011;37397;53.226;10.400;2022-07-23T04:02:43;4.45;;;2.25;;
51312;SDS011;37397;53.226;10.400;2022-07-23T04:05:11;5.97;;;2.08;;
51312;SDS011;37397;53.226;10.400;2022-07-23T04:07:40;6.85;;;1.92;;
51312;SDS011;37397;53.226;10.400;2022-07-23T04:10:07;7.97;;;2.03;;
51312;SDS011;37397;53.226;10.400;2022-07-23T04:12:33;6.25;;;2.00;;
51312;SDS011;37397;53.226;10.400;2022-07-23T04:15:01;8.18;;;2.03;;
51312;SDS011;37397;53.226;10.400;2022-07-23T04:17:28;4.68;;;2.10;;
51312;SDS011;37397;53.226;10.400;2022-07-23T04:19:54;3.10;;;1.90;;
51312;SDS011;37397;53.226;10.400;2022-07-23T04:22:23;5.68;;;2.22;;
51312;SDS011;37397;53.226;10.400;2022-07-23T04:24:50;4.32;;;2.00;;
51312;SDS011;37397;53.226;10.400;2022-07-23T04:27:17;6.57;;;2.10;;
51312;SDS011;37397;53.226;10.400;2022-07-23T04:29:44;7.35;;;2.00;;
51312;SDS011;37397;53.226;10.400;2022-07-23T04:32:13;4.90;;;2.10;;
51312;SDS011;37397;53.226;10.400;2022-07-23T04:34:40;4.82;;;1.92;;
51312;SDS011;37397;53.226;10.400;2022-07-23T04:37:07;4.28;;;1.90;;
51312;SDS011;37397;53.226;10.400;2022-07-23T04:39:35;4.78;;;2.00;;
51312;SDS011;37397;53.226;10.400;2022-07-23T04:42:01;3.95;;;1.98;;
51312;SDS011;37397;53.226;10.400;2022-07-23T04:44:29;5.53;;;1.85;;
51312;SDS011;37397;53.226;10.400;2022-07-23T04:46:56;4.55;;;2.13;;
51312;SDS011;37397;53.226;10.400;2022-07-23T04:49:23;6.13;;;1.92;;
51312;SDS011;37397;53.226;10.400;2022-07-23T04:51:50;4.80;;;2.10;;
51312;SDS011;37397;53.226;10.400;2022-07-23T04:54:16;5.30;;;2.20;;
51312;SDS011;37397;53.226;10.400;2022-07-23T04:56:43;5.18;;;1.98;;
51312;SDS011;37397;53.226;10.400;2022-07-23T04:59:10;5.78;;;2.20;;
51312;SDS011;37397;53.226;10.400;2022-07-23T05:01:37;6.60;;;2.30;;
51312;SDS011;37397;53.226;10.400;2022-07-23T05:04:04;5.57;;;2.22;;
51312;SDS011;37397;53.226;10.400;2022-07-23T05:06:33;5.35;;;2.10;;
51312;SDS011;37397;53.226;10.400;2022-07-23T05:09:00;5.85;;;2.50;;
51312;SDS011;37397;53.226;10.400;2022-07-23T05:11:28;5.95;;;2.20;;
51312;SDS011;37397;53.226;10.400;2022-07-23T05:13:55;3.53;;;2.00;;
51312;SDS011;37397;53.226;10.400;2022-07-23T05:16:22;4.72;;;2.03;;
51312;SDS011;37397;53.226;10.400;2022-07-23T05:18:52;6.18;;;1.98;;
51312;SDS011;37397;53.226;10.400;2022-07-23T05:21:20;5.30;;;2.22;;
51312;SDS011;37397;53.226;10.400;2022-07-23T05:23:46;5.32;;;1.95;;
51312;SDS011;37397;53.226;10.400;2022-07-23T05:26:13;4.60;;;1.80;;
51312;SDS011;37397;53.226;10.400;2022-07-23T05:28:40;3.65;;;2.08;;
51312;SDS011;37397;53.226;10.400;2022-07-23T05:31:13;4.40;;;2.00;;
51312;SDS011;37397;53.226;10.400;2022-07-23T05:33:39;7.28;;;2.05;;
51312;SDS011;37397;53.226;10.400;2022-07-23T05:36:07;5.57;;;2.30;;
51312;SDS011;37397;53.226;10.400;2022-07-23T05:38:40;5.22;;;2.13;;
51312;SDS011;37397;53.226;10.400;2022-07-23T05:41:06;4.22;;;1.85;;
51312;SDS011;37397;53.226;10.400;2022-07-23T05:43:34;3.90;;;2.00;;
51312;SDS011;37397;53.226;10.400;2022-07-23T05:46:06;6.07;;;1.83;;
51312;SDS011;37397;53.226;10.400;2022-07-23T05:48:35;3.83;;;1.83;;
51312;SDS011;37397;53.226;10.400;2022-07-23T05:51:10;4.38;;;2.05;;
51312;SDS011;37397;53.226;10.400;2022-07-23T05:53:37;5.10;;;2.40;;
51312;SDS011;37397;53.226;10.400;2022-07-23T05:56:18;5.15;;;2.10;;
51312;SDS011;37397;53.226;10.400;2022-07-23T05:58:45;7.13;;;2.38;;
51312;SDS011;37397;53.226;10.400;2022-07-23T06:01:14;4.93;;;2.20;;
51312;SDS011;37397;53.226;10.400;2022-07-23T06:04:03;6.90;;;2.47;;
51312;SDS011;37397;53.226;10.400;2022-07-23T06:06:34;4.38;;;2.17;;
51312;SDS011;37397;53.226;10.400;2022-07-23T06:09:02;3.85;;;2.17;;
51312;SDS011;37397;53.226;10.400;2022-07-23T06:11:30;6.28;;;2.40;;
51312;SDS011;37397;53.226;10.400;2022-07-23T06:13:56;5.53;;;2.35;;
51312;SDS011;37397;53.226;10.400;2022-07-23T06:16:34;7.43;;;2.50;;
51312;SDS011;37397;53.226;10.400;2022-07-23T06:19:00;6.68;;;2.78;;
51312;SDS011;37397;53.226;10.400;2022-07-23T06:21:29;10.25;;;2.22;;
51312;SDS011;37397;53.226;10.400;2022-07-23T06:24:14;4.55;;;2.20;;
51312;SDS011;37397;53.226;10.400;2022-07-23T06:26:41;6.55;;;2.28;;
51312;SDS011;37397;53.226;10.400;2022-07-23T06:29:07;5.30;;;2.30;;
51312;SDS011;37397;53.226;10.400;2022-07-23T06:31:34;7.40;;;2.25;;
51312;SDS011;37397;53.226;10.400;2022-07-23T06:34:00;7.40;;;2.30;;
51312;SDS011;37397;53.226;10.400;2022-07-23T06:36:27;5.82;;;2.00;;
51312;SDS011;37397;53.226;10.400;2022-07-23T06:38:54;5.07;;;2.10;;
51312;SDS011;37397;53.226;10.400;2022-07-23T06:41:20;7.13;;;1.83;;
51312;SDS011;37397;53.226;10.400;2022-07-23T06:43:48;6.28;;;2.00;;
51312;SDS011;37397;53.226;10.400;2022-07-23T06:46:16;5.40;;;1.83;;
51312;SDS011;37397;53.226;10.400;2022-07-23T06:48:43;5.10;;;1.80;;
51312;SDS011;37397;53.226;10.400;2022-07-23T06:51:09;6.20;;;2.00;;
51312;SDS011;37397;53.226;10.400;2022-07-23T06:53:36;8.15;;;1.98;;
51312;SDS011;37397;53.226;10.400;2022-07-23T06:56:02;5.90;;;2.00;;
51312;SDS011;37397;53.226;10.400;2022-07-23T06:58:29;4.85;;;2.05;;
51312;SDS011;37397;53.226;10.400;2022-07-23T07:00:55;8.02;;;2.35;;
51312;SDS011;37397;53.226;10.400;2022-07-23T07:03:23;8.10;;;2.03;;
51312;SDS011;37397;53.226;10.400;2022-07-23T07:05:49;4.20;;;1.65;;
51312;SDS011;37397;53.226;10.400;2022-07-23T07:08:16;5.30;;;1.73;;
51312;SDS011;37397;53.226;10.400;2022-07-23T07:10:43;5.32;;;1.80;;
51312;SDS011;37397;53.226;10.400;2022-07-23T07:13:09;5.90;;;2.00;;
51312;SDS011;37397;53.226;10.400;2022-07-23T07:15:36;5.40;;;1.77;;
51312;SDS011;37397;53.226;10.400;2022-07-23T07:18:02;6.00;;;1.88;;
51312;SDS011;37397;53.226;10.400;2022-07-23T07:20:29;7.63;;;2.17;;
51312;SDS011;37397;53.226;10.400;2022-07-23T07:22:55;3.47;;;1.70;;
51312;SDS011;37397;53.226;10.400;2022-07-23T07:25:22;4.50;;;1.65;;
51312;SDS011;37397;53.226;10.400;2022-07-23T07:27:48;6.40;;;1.90;;
51312;SDS011;37397;53.226;10.400;2022-07-23T07:30:15;6.07;;;1.77;;
51312;SDS011;37397;53.226;10.400;2022-07-23T07:32:42;4.07;;;1.40;;
51312;SDS011;37397;53.226;10.400;2022-07-23T07:35:24;3.63;;;1.70;;
51312;SDS011;37397;53.226;10.400;2022-07-23T07:37:51;3.33;;;1.50;;
51312;SDS011;37397;53.226;10.400;2022-07-23T07:40:18;3.38;;;1.38;;
51312;SDS011;37397;53.226;10.400;2022-07-23T07:42:45;5.80;;;1.88;;
51312;SDS011;37397;53.226;10.400;2022-07-23T07:45:23;4.25;;;1.40;;
51312;SDS011;37397;53.226;10.400;2022-07-23T07:47:51;3.75;;;1.33;;
51312;SDS011;37397;53.226;10.400;2022-07-23T07:50:19;5.78;;;1.63;;
51312;SDS011;37397;53.226;10.400;2022-07-23T07:52:47;7.55;;;1.58;;
51312;SDS011;37397;53.226;10.400;2022-07-23T07:55:14;3.05;;;1.67;;
51312;SDS011;37397;53.226;10.400;2022-07-23T07:57:43;3.50;;;1.42;;
51312;SDS011;37397;53.226;10.400;2022-07-23T08:00:14;5.32;;;1.33;;
51312;SDS011;37397;53.226;10.400;2022-07-23T08:02:41;6.53;;;1.60;;
51312;SDS011;37397;53.226;10.400;2022-07-23T08:05:08;2.95;;;1.15;;
51312;SDS011;37397;53.226;10.400;2022-07-23T08:07:35;3.78;;;1.55;;
51312;SDS011;37397;53.226;10.400;2022-07-23T08:10:01;4.88;;;1.23;;
51312;SDS011;37397;53.226;10.400;2022-07-23T08:12:37;5.50;;;1.67;;
51312;SDS011;37397;53.226;10.400;2022-07-23T08:15:07;8.13;;;1.65;;
51312;SDS011;37397;53.226;10.400;2022-07-23T08:17:39;9.15;;;1.70;;
51312;SDS011;37397;53.226;10.400;2022-07-23T08:20:06;4.18;;;1.40;;
51312;SDS011;37397;53.226;10.400;2022-07-23T08:25:28;9.13;;;1.75;;
51312;SDS011;37397;53.226;10.400;2022-07-23T08:27:57;3.70;;;1.33;;
51312;SDS011;37397;53.226;10.400;2022-07-23T08:30:25;5.40;;;1.58;;
51312;SDS011;37397;53.226;10.400;2022-07-23T08:33:08;5.20;;;1.50;;
51312;SDS011;37397;53.226;10.400;2022-07-23T08:35:59;3.03;;;1.30;;
51312;SDS011;37397;53.226;10.400;2022-07-23T08:38:29;5.00;;;1.55;;
51312;SDS011;37397;53.226;10.400;2022-07-23T08:40:56;2.72;;;1.40;;
51312;SDS011;37397;53.226;10.400;2022-07-23T08:43:26;3.15;;;1.40;;
51312;SDS011;37397;53.226;10.400;2022-07-23T08:45:54;3.08;;;1.25;;
51312;SDS011;37397;53.226;10.400;2022-07-23T08:48:24;3.00;;;1.38;;
51312;SDS011;37397;53.226;10.400;2022-07-23T08:50:53;3.58;;;1.55;;
51312;SDS011;37397;53.226;10.400;2022-07-23T08:53:24;3.45;;;1.40;;
51312;SDS011;37397;53.226;10.400;2022-07-23T08:55:53;3.58;;;1.80;;
51312;SDS011;37397;53.226;10.400;2022-07-23T08:58:22;5.88;;;1.73;;
51312;SDS011;37397;53.226;10.400;2022-07-23T09:00:53;3.03;;;1.38;;
51312;SDS011;37397;53.226;10.400;2022-07-23T09:03:22;6.72;;;1.77;;
51312;SDS011;37397;53.226;10.400;2022-07-23T09:05:50;5.13;;;1.50;;
51312;SDS011;37397;53.226;10.400;2022-07-23T09:08:18;4.05;;;1.50;;
51312;SDS011;37397;53.226;10.400;2022-07-23T09:10:49;5.93;;;1.88;;
51312;SDS011;37397;53.226;10.400;2022-07-23T09:15:50;4.50;;;1.50;;
51312;SDS011;37397;53.226;10.400;2022-07-23T09:18:19;3.08;;;1.40;;
51312;SDS011;37397;53.226;10.400;2022-07-23T09:21:04;3.72;;;1.58;;
51312;SDS011;37397;53.226;10.400;2022-07-23T09:24:06;4.97;;;1.63;;
51312;SDS011;37397;53.226;10.400;2022-07-23T09:29:02;4.32;;;2.08;;
51312;SDS011;37397;53.226;10.400;2022-07-23T09:31:54;3.55;;;1.45;;
51312;SDS011;37397;53.226;10.400;2022-07-23T09:34:26;3.72;;;1.58;;
51312;SDS011;37397;53.226;10.400;2022-07-23T09:36:56;6.38;;;1.70;;
51312;SDS011;37397;53.226;10.400;2022-07-23T09:39:25;3.88;;;1.60;;
51312;SDS011;37397;53.226;10.400;2022-07-23T09:41:56;5.40;;;1.73;;
51312;SDS011;37397;53.226;10.400;2022-07-23T09:44:23;3.00;;;1.20;;
51312;SDS011;37397;53.226;10.400;2022-07-23T09:46:57;4.53;;;1.70;;
51312;SDS011;37397;53.226;10.400;2022-07-23T09:49:26;6.00;;;1.70;;
51312;SDS011;37397;53.226;10.400;2022-07-23T09:51:54;4.60;;;1.58;;
51312;SDS011;37397;53.226;10.400;2022-07-23T09:54:25;3.95;;;1.58;;
51312;SDS011;37397;53.226;10.400;2022-07-23T09:56:59;4.57;;;1.65;;
51312;SDS011;37397;53.226;10.400;2022-07-23T09:59:41;5.20;;;1.50;;
51312;SDS011;37397;53.226;10.400;2022-07-23T10:02:10;2.67;;;1.27;;
51312;SDS011;37397;53.226;10.400;2022-07-23T10:05:05;4.28;;;1.50;;
51312;SDS011;37397;53.226;10.400;2022-07-23T10:08:04;3.00;;;1.70;;
51312;SDS011;37397;53.226;10.400;2022-07-23T10:11:05;1.75;;;1.13;;
51312;SDS011;37397;53.226;10.400;2022-07-23T10:13:39;2.63;;;1.38;;
51312;SDS011;37397;53.226;10.400;2022-07-23T10:16:18;2.50;;;1.08;;
51312;SDS011;37397;53.226;10.400;2022-07-23T10:18:52;3.80;;;1.35;;
51312;SDS011;37397;53.226;10.400;2022-07-23T10:21:22;2.40;;;1.27;;
51312;SDS011;37397;53.226;10.400;2022-07-23T10:26:53;5.35;;;1.55;;
51312;SDS011;37397;53.226;10.400;2022-07-23T10:29:44;4.25;;;1.60;;
51312;SDS011;37397;53.226;10.400;2022-07-23T10:32:26;3.30;;;1.17;;
51312;SDS011;37397;53.226;10.400;2022-07-23T10:35:16;2.67;;;1.30;;
51312;SDS011;37397;53.226;10.400;2022-07-23T10:38:27;1.17;;;1.08;;
51312;SDS011;37397;53.226;10.400;2022-07-23T10:40:59;1.85;;;1.00;;
51312;SDS011;37397;53.226;10.400;2022-07-23T10:43:27;2.78;;;1.20;;
51312;SDS011;37397;53.226;10.400;2022-07-23T10:45:54;3.47;;;1.42;;
51312;SDS011;37397;53.226;10.400;2022-07-23T10:48:23;4.05;;;1.30;;
51312;SDS011;37397;53.226;10.400;2022-07-23T10:54:03;2.35;;;0.85;;
51312;SDS011;37397;53.226;10.400;2022-07-23T10:56:49;2.75;;;1.13;;
51312;SDS011;37397;53.226;10.400;2022-07-23T10:59:22;1.90;;;1.00;;
51312;SDS011;37397;53.226;10.400;2022-07-23T11:01:49;1.25;;;0.98;;
51312;SDS011;37397;53.226;10.400;2022-07-23T11:04:18;1.95;;;0.90;;
51312;SDS011;37397;53.226;10.400;2022-07-23T11:09:23;3.53;;;0.90;;
51312;SDS011;37397;53.226;10.400;2022-07-23T11:17:24;4.43;;;1.08;;
51312;SDS011;37397;53.226;10.400;2022-07-23T11:27:54;2.45;;;1.20;;
51312;SDS011;37397;53.226;10.400;2022-07-23T11:35:35;4.78;;;1.05;;
51312;SDS011;37397;53.226;10.400;2022-07-23T11:38:17;1.95;;;0.90;;
51312;SDS011;37397;53.226;10.400;2022-07-23T11:40:45;2.45;;;0.80;;
51312;SDS011;37397;53.226;10.400;2022-07-23T11:43:15;4.07;;;1.08;;
51312;SDS011;37397;53.226;10.400;2022-07-23T11:45:43;2.83;;;0.95;;
51312;SDS011;37397;53.226;10.400;2022-07-23T11:48:16;3.22;;;1.05;;
51312;SDS011;37397;53.226;10.400;2022-07-23T11:50:48;2.53;;;1.10;;
51312;SDS011;37397;53.226;10.400;2022-07-23T11:53:24;3.10;;;0.95;;
51312;SDS011;37397;53.226;10.400;2022-07-23T11:55:56;2.72;;;1.02;;
51312;SDS011;37397;53.226;10.400;2022-07-23T11:58:29;1.50;;;0.93;;
51312;SDS011;37397;53.226;10.400;2022-07-23T12:00:57;1.92;;;1.02;;
51312;SDS011;37397;53.226;10.400;2022-07-23T12:03:24;1.92;;;1.02;;
51312;SDS011;37397;53.226;10.400;2022-07-23T12:05:55;3.00;;;1.02;;
51312;SDS011;37397;53.226;10.400;2022-07-23T12:08:23;4.07;;;1.10;;
51312;SDS011;37397;53.226;10.400;2022-07-23T12:10:50;3.03;;;1.10;;
51312;SDS011;37397;53.226;10.400;2022-07-23T12:13:17;4.00;;;0.90;;
51312;SDS011;37397;53.226;10.400;2022-07-23T12:15:47;2.28;;;0.93;;
51312;SDS011;37397;53.226;10.400;2022-07-23T12:18:16;0.88;;;0.70;;
51312;SDS011;37397;53.226;10.400;2022-07-23T12:20:50;2.65;;;0.73;;
51312;SDS011;37397;53.226;10.400;2022-07-23T12:23:19;2.72;;;0.93;;
51312;SDS011;37397;53.226;10.400;2022-07-23T12:25:47;2.55;;;0.95;;
51312;SDS011;37397;53.226;10.400;2022-07-23T12:28:20;0.70;;;0.70;;
51312;SDS011;37397;53.226;10.400;2022-07-23T12:30:51;2.08;;;0.73;;
51312;SDS011;37397;53.226;10.400;2022-07-23T12:33:24;2.97;;;0.93;;
51312;SDS011;37397;53.226;10.400;2022-07-23T12:35:53;2.72;;;1.00;;
51312;SDS011;37397;53.226;10.400;2022-07-23T12:38:22;1.35;;;0.73;;
51312;SDS011;37397;53.226;10.400;2022-07-23T12:43:24;2.38;;;1.00;;
51312;SDS011;37397;53.226;10.400;2022-07-23T12:46:18;1.17;;;0.90;;
51312;SDS011;37397;53.226;10.400;2022-07-23T12:51:17;2.92;;;0.68;;
51312;SDS011;37397;53.226;10.400;2022-07-23T12:53:51;0.90;;;0.63;;
51312;SDS011;37397;53.226;10.400;2022-07-23T12:56:20;3.72;;;0.73;;
51312;SDS011;37397;53.226;10.400;2022-07-23T12:58:53;2.60;;;0.80;;
51312;SDS011;37397;53.226;10.400;2022-07-23T13:09:18;2.92;;;0.88;;
51312;SDS011;37397;53.226;10.400;2022-07-23T13:11:50;3.08;;;1.00;;
51312;SDS011;37397;53.226;10.400;2022-07-23T13:14:22;1.77;;;0.80;;
51312;SDS011;37397;53.226;10.400;2022-07-23T13:16:52;2.47;;;0.80;;
51312;SDS011;37397;53.226;10.400;2022-07-23T13:19:22;1.95;;;0.80;;
51312;SDS011;37397;53.226;10.400;2022-07-23T13:21:50;1.45;;;0.70;;
51312;SDS011;37397;53.226;10.400;2022-07-23T13:24:17;6.15;;;0.85;;
51312;SDS011;37397;53.226;10.400;2022-07-23T13:26:45;2.00;;;0.90;;
51312;SDS011;37397;53.226;10.400;2022-07-23T13:29:13;3.92;;;1.00;;
51312;SDS011;37397;53.226;10.400;2022-07-23T13:31:42;2.50;;;0.70;;
51312;SDS011;37397;53.226;10.400;2022-07-23T13:34:11;1.38;;;0.75;;
51312;SDS011;37397;53.226;10.400;2022-07-23T13:36:38;2.05;;;0.77;;
51312;SDS011;37397;53.226;10.400;2022-07-23T13:39:05;1.38;;;0.88;;
51312;SDS011;37397;53.226;10.400;2022-07-23T13:41:35;1.35;;;0.80;;
51312;SDS011;37397;53.226;10.400;2022-07-23T13:44:03;1.85;;;0.60;;
51312;SDS011;37397;53.226;10.400;2022-07-23T13:46:29;3.72;;;0.70;;
51312;SDS011;37397;53.226;10.400;2022-07-23T13:48:56;3.33;;;1.00;;
51312;SDS011;37397;53.226;10.400;2022-07-23T13:51:23;1.08;;;0.77;;
51312;SDS011;37397;53.226;10.400;2022-07-23T13:53:51;2.03;;;0.85;;
51312;SDS011;37397;53.226;10.400;2022-07-23T13:56:18;2.58;;;0.95;;
51312;SDS011;37397;53.226;10.400;2022-07-23T13:58:45;20.02;;;2.63;;
51312;SDS011;37397;53.226;10.400;2022-07-23T14:01:11;4.35;;;1.25;;
51312;SDS011;37397;53.226;10.400;2022-07-23T14:03:38;3.72;;;1.00;;
51312;SDS011;37397;53.226;10.400;2022-07-23T14:06:05;3.05;;;1.00;;
51312;SDS011;37397;53.226;10.400;2022-07-23T14:08:41;1.33;;;0.88;;
51312;SDS011;37397;53.226;10.400;2022-07-23T14:11:09;1.52;;;0.70;;
51312;SDS011;37397;53.226;10.400;2022-07-23T14:13:37;3.78;;;1.10;;
51312;SDS011;37397;53.226;10.400;2022-07-23T14:16:03;2.75;;;0.90;;
51312;SDS011;37397;53.226;10.400;2022-07-23T14:18:30;1.00;;;0.73;;
51312;SDS011;37397;53.226;10.400;2022-07-23T14:20:59;0.63;;;0.63;;
51312;SDS011;37397;53.226;10.400;2022-07-23T14:23:27;3.22;;;0.60;;
51312;SDS011;37397;53.226;10.400;2022-07-23T14:25:53;2.90;;;0.90;;
51312;SDS011;37397;53.226;10.400;2022-07-23T14:28:20;1.27;;;0.80;;
51312;SDS011;37397;53.226;10.400;2022-07-23T14:30:47;0.93;;;0.82;;
51312;SDS011;37397;53.226;10.400;2022-07-23T14:33:14;1.25;;;1.05;;
51312;SDS011;37397;53.226;10.400;2022-07-23T14:35:42;1.48;;;0.80;;
51312;SDS011;37397;53.226;10.400;2022-07-23T14:38:09;1.40;;;0.90;;
51312;SDS011;37397;53.226;10.400;2022-07-23T14:40:39;1.20;;;0.60;;
51312;SDS011;37397;53.226;10.400;2022-07-23T14:43:07;2.60;;;1.08;;
51312;SDS011;37397;53.226;10.400;2022-07-23T14:45:37;2.28;;;0.80;;
51312;SDS011;37397;53.226;10.400;2022-07-23T14:48:04;3.75;;;0.90;;
51312;SDS011;37397;53.226;10.400;2022-07-23T14:50:31;2.17;;;1.10;;
51312;SDS011;37397;53.226;10.400;2022-07-23T14:52:57;2.03;;;0.82;;
51312;SDS011;37397;53.226;10.400;2022-07-23T14:55:24;4.68;;;1.00;;
51312;SDS011;37397;53.226;10.400;2022-07-23T14:57:51;3.60;;;1.08;;
51312;SDS011;37397;53.226;10.400;2022-07-23T15:00:18;4.00;;;1.30;;
51312;SDS011;37397;53.226;10.400;2022-07-23T15:02:49;2.80;;;1.30;;
51312;SDS011;37397;53.226;10.400;2022-07-23T15:05:21;1.02;;;0.88;;
51312;SDS011;37397;53.226;10.400;2022-07-23T15:07:48;1.77;;;0.93;;
51312;SDS011;37397;53.226;10.400;2022-07-23T15:10:15;0.90;;;0.70;;
51312;SDS011;37397;53.226;10.400;2022-07-23T15:12:45;2.20;;;1.00;;
51312;SDS011;37397;53.226;10.400;2022-07-23T15:15:12;2.92;;;0.98;;
51312;SDS011;37397;53.226;10.400;2022-07-23T15:17:39;2.25;;;0.88;;
51312;SDS011;37397;53.226;10.400;2022-07-23T15:20:06;2.15;;;0.80;;
51312;SDS011;37397;53.226;10.400;2022-07-23T15:22:34;2.30;;;0.95;;
51312;SDS011;37397;53.226;10.400;2022-07-23T15:25:00;2.42;;;1.08;;
51312;SDS011;37397;53.226;10.400;2022-07-23T15:27:27;1.38;;;1.00;;
51312;SDS011;37397;53.226;10.400;2022-07-23T15:29:56;1.90;;;1.10;;
51312;SDS011;37397;53.226;10.400;2022-07-23T15:32:22;3.25;;;0.90;;
51312;SDS011;37397;53.226;10.400;2022-07-23T15:34:53;1.75;;;0.82;;